UAE245 LATI-LWSK
Flight info
| Callsign | UAE245 |
|---|---|
| Flight time | 0h 21m |
| Altitude | 20000 |
| Route | ODRA2W ODRAS GOSTI GOST2B |
| Aircraft | A333/H-VGD/A |
Departure
| Time | 2026-04-25 16:56 |
|---|---|
| Airport | Tirana International Airport Mother Teresa (LATI) |
Arrival
| Time | 2026-04-25 17:18 |
|---|---|
| Airport | Skopje International Airport (LWSK) |
| Time | Latitude | Longitude | Altitude | Speed | Heading |
|---|---|---|---|---|---|
| 2026-04-25 16:51 | 41.41760 | 19.71527 | 125 ft | 0 kts | 263° |
| 2026-04-25 16:53 | 41.41760 | 19.71526 | 125 ft | 0 kts | 259° |
| 2026-04-25 16:53 | 41.41730 | 19.71547 | 125 ft | 14 kts | 86° |
| 2026-04-25 16:54 | 41.41688 | 19.71614 | 125 ft | 18 kts | 174° |
| 2026-04-25 16:54 | 41.41494 | 19.71648 | 129 ft | 37 kts | 169° |
| 2026-04-25 16:54 | 41.41180 | 19.71685 | 132 ft | 52 kts | 174° |
| 2026-04-25 16:54 | 41.40785 | 19.71753 | 132 ft | 58 kts | 172° |
| 2026-04-25 16:55 | 41.40391 | 19.71836 | 136 ft | 55 kts | 154° |
| 2026-04-25 16:55 | 41.40276 | 19.72172 | 139 ft | 41 kts | 39° |
| 2026-04-25 16:55 | 41.40530 | 19.72163 | 136 ft | 39 kts | 354° |
| 2026-04-25 16:55 | 41.41005 | 19.72119 | 135 ft | 106 kts | 355° |
| 2026-04-25 16:56 | 41.41985 | 19.71992 | 126 ft | 174 kts | 354° |
| 2026-04-25 16:56 | 41.43277 | 19.71753 | 666 ft | 193 kts | 350° |
| 2026-04-25 16:56 | 41.44629 | 19.71575 | 1585 ft | 209 kts | 358° |
| 2026-04-25 16:56 | 41.46203 | 19.71418 | 2226 ft | 244 kts | 356° |
| 2026-04-25 16:57 | 41.48006 | 19.71262 | 3069 ft | 275 kts | 358° |
| 2026-04-25 16:57 | 41.49294 | 19.71203 | 3709 ft | 292 kts | 359° |
| 2026-04-25 16:57 | 41.52100 | 19.71164 | 5140 ft | 318 kts | 356° |
| 2026-04-25 16:57 | 41.54324 | 19.70949 | 6465 ft | 326 kts | 354° |
| 2026-04-25 16:58 | 41.56406 | 19.70602 | 8747 ft | 296 kts | 354° |
| 2026-04-25 16:58 | 41.58255 | 19.70328 | 10643 ft | 268 kts | 354° |
| 2026-04-25 16:58 | 41.60000 | 19.70079 | 12094 ft | 251 kts | 354° |
| 2026-04-25 16:58 | 41.61722 | 19.69836 | 12944 ft | 256 kts | 353° |
| 2026-04-25 16:59 | 41.63509 | 19.70119 | 13579 ft | 267 kts | 22° |
| 2026-04-25 16:59 | 41.65028 | 19.71580 | 14307 ft | 278 kts | 48° |
| 2026-04-25 16:59 | 41.65873 | 19.73859 | 15152 ft | 285 kts | 77° |
| 2026-04-25 16:59 | 41.65774 | 19.76486 | 16035 ft | 288 kts | 104° |
| 2026-04-25 17:00 | 41.64786 | 19.78770 | 16699 ft | 296 kts | 133° |
| 2026-04-25 17:00 | 41.63143 | 19.80510 | 17295 ft | 305 kts | 140° |
| 2026-04-25 17:00 | 41.61441 | 19.82216 | 17865 ft | 312 kts | 141° |
| 2026-04-25 17:00 | 41.59652 | 19.83950 | 18328 ft | 325 kts | 142° |
| 2026-04-25 17:01 | 41.57809 | 19.85751 | 18785 ft | 337 kts | 135° |
| 2026-04-25 17:01 | 41.56358 | 19.88172 | 19320 ft | 337 kts | 118° |
| 2026-04-25 17:01 | 41.55172 | 19.90893 | 19913 ft | 344 kts | 116° |
| 2026-04-25 17:01 | 41.53993 | 19.93781 | 20042 ft | 363 kts | 116° |
| 2026-04-25 17:02 | 41.52760 | 19.96839 | 20030 ft | 388 kts | 116° |
| 2026-04-25 17:02 | 41.51611 | 20.00168 | 20069 ft | 411 kts | 105° |
| 2026-04-25 17:02 | 41.51208 | 20.04025 | 20055 ft | 429 kts | 86° |
| 2026-04-25 17:02 | 41.51444 | 20.06640 | 20047 ft | 429 kts | 75° |
| 2026-04-25 17:03 | 41.52884 | 20.11536 | 20023 ft | 419 kts | 59° |
| 2026-04-25 17:03 | 41.54399 | 20.14777 | 20026 ft | 415 kts | 56° |
| 2026-04-25 17:03 | 41.55930 | 20.18008 | 20022 ft | 415 kts | 56° |
| 2026-04-25 17:03 | 41.57225 | 20.21491 | 20008 ft | 416 kts | 66° |
| 2026-04-25 17:04 | 41.58306 | 20.25058 | 20029 ft | 417 kts | 65° |
| 2026-04-25 17:04 | 41.59378 | 20.28599 | 20020 ft | 416 kts | 67° |
| 2026-04-25 17:04 | 41.60270 | 20.32323 | 20020 ft | 417 kts | 70° |
| 2026-04-25 17:04 | 41.61114 | 20.35998 | 20026 ft | 418 kts | 70° |
| 2026-04-25 17:05 | 41.61958 | 20.39681 | 20029 ft | 417 kts | 70° |
| 2026-04-25 17:05 | 41.63665 | 20.47129 | 20040 ft | 418 kts | 69° |
| 2026-04-25 17:05 | 41.64508 | 20.50813 | 20037 ft | 419 kts | 70° |
| 2026-04-25 17:06 | 41.65366 | 20.54544 | 20045 ft | 419 kts | 70° |
| 2026-04-25 17:06 | 41.66211 | 20.58235 | 20048 ft | 419 kts | 70° |
| 2026-04-25 17:06 | 41.67078 | 20.61935 | 20051 ft | 419 kts | 69° |
| 2026-04-25 17:06 | 41.67979 | 20.65644 | 20051 ft | 419 kts | 70° |
| 2026-04-25 17:07 | 41.68876 | 20.69355 | 20051 ft | 418 kts | 70° |
| 2026-04-25 17:07 | 41.69767 | 20.73030 | 20053 ft | 418 kts | 70° |
| 2026-04-25 17:07 | 41.70656 | 20.76720 | 20051 ft | 418 kts | 70° |
| 2026-04-25 17:07 | 41.71552 | 20.80428 | 20050 ft | 419 kts | 70° |
| 2026-04-25 17:08 | 41.72444 | 20.84116 | 20050 ft | 419 kts | 70° |
| 2026-04-25 17:08 | 41.73336 | 20.87806 | 20049 ft | 418 kts | 70° |
| 2026-04-25 17:08 | 41.74240 | 20.91541 | 20049 ft | 419 kts | 70° |
| 2026-04-25 17:08 | 41.75169 | 20.95212 | 20044 ft | 418 kts | 66° |
| 2026-04-25 17:09 | 41.76247 | 20.98786 | 20047 ft | 418 kts | 66° |
| 2026-04-25 17:09 | 41.77329 | 21.02374 | 20042 ft | 418 kts | 66° |
| 2026-04-25 17:09 | 41.78415 | 21.05970 | 20042 ft | 418 kts | 66° |
| 2026-04-25 17:09 | 41.79507 | 21.09590 | 20038 ft | 418 kts | 66° |
| 2026-04-25 17:10 | 41.80646 | 21.13195 | 20034 ft | 418 kts | 62° |
| 2026-04-25 17:10 | 41.81943 | 21.16613 | 20040 ft | 416 kts | 61° |
| 2026-04-25 17:10 | 41.83190 | 21.20137 | 20029 ft | 418 kts | 65° |
| 2026-04-25 17:10 | 41.84267 | 21.23744 | 20033 ft | 419 kts | 66° |
| 2026-04-25 17:11 | 41.85354 | 21.27355 | 19881 ft | 422 kts | 65° |
| 2026-04-25 17:11 | 41.86448 | 21.30979 | 19200 ft | 413 kts | 64° |
| 2026-04-25 17:11 | 41.87421 | 21.34530 | 18401 ft | 410 kts | 70° |
| 2026-04-25 17:11 | 41.88272 | 21.38152 | 17346 ft | 408 kts | 70° |
| 2026-04-25 17:12 | 41.89085 | 21.41751 | 16320 ft | 401 kts | 76° |
| 2026-04-25 17:12 | 41.89174 | 21.45405 | 15484 ft | 390 kts | 98° |
| 2026-04-25 17:12 | 41.88203 | 21.48691 | 14676 ft | 378 kts | 122° |
| 2026-04-25 17:12 | 41.86378 | 21.51094 | 13907 ft | 366 kts | 149° |
| 2026-04-25 17:13 | 41.84094 | 21.52379 | 13087 ft | 355 kts | 153° |
| 2026-04-25 17:13 | 41.82668 | 21.53459 | 12509 ft | 350 kts | 141° |
| 2026-04-25 17:13 | 41.80731 | 21.56768 | 11073 ft | 348 kts | 114° |
| 2026-04-25 17:13 | 41.79638 | 21.59647 | 9634 ft | 356 kts | 115° |
| 2026-04-25 17:14 | 41.78498 | 21.62561 | 8240 ft | 359 kts | 117° |
| 2026-04-25 17:14 | 41.77350 | 21.65461 | 6872 ft | 358 kts | 113° |
| 2026-04-25 17:14 | 41.76834 | 21.68614 | 5867 ft | 340 kts | 82° |
| 2026-04-25 17:14 | 41.77655 | 21.71375 | 5314 ft | 313 kts | 47° |
| 2026-04-25 17:15 | 41.79367 | 21.72934 | 4780 ft | 293 kts | 12° |
| 2026-04-25 17:15 | 41.81321 | 21.72818 | 4179 ft | 283 kts | 340° |
| 2026-04-25 17:15 | 41.82879 | 21.71233 | 3089 ft | 292 kts | 307° |
| 2026-04-25 17:15 | 41.84215 | 21.69339 | 2425 ft | 272 kts | 320° |
| 2026-04-25 17:16 | 41.85500 | 21.67636 | 2095 ft | 246 kts | 311° |
| 2026-04-25 17:16 | 41.86661 | 21.66193 | 1848 ft | 216 kts | 325° |
| 2026-04-25 17:16 | 41.88025 | 21.65261 | 1611 ft | 229 kts | 334° |
| 2026-04-25 17:16 | 41.89539 | 21.64420 | 1419 ft | 241 kts | 338° |
| 2026-04-25 17:17 | 41.91127 | 21.63762 | 1264 ft | 229 kts | 347° |
| 2026-04-25 17:17 | 41.92582 | 21.63360 | 1034 ft | 204 kts | 345° |
| 2026-04-25 17:17 | 41.93992 | 21.62908 | 963 ft | 205 kts | 343° |
| 2026-04-25 17:17 | 41.95297 | 21.62441 | 811 ft | 182 kts | 345° |
| 2026-04-25 17:18 | 41.96401 | 21.62036 | 787 ft | 144 kts | 347° |
| 2026-04-25 17:18 | 41.97054 | 21.61835 | 788 ft | 29 kts | 345° |
| 2026-04-25 17:18 | 41.97208 | 21.61806 | 788 ft | 10 kts | 30° |
| 2026-04-25 17:18 | 41.97223 | 21.61861 | 790 ft | 1 kts | 125° |
| 2026-04-25 17:19 | 41.97201 | 21.61900 | 791 ft | 10 kts | 135° |
| 2026-04-25 17:19 | 41.97096 | 21.61945 | 791 ft | 23 kts | 167° |
| 2026-04-25 17:19 | 41.96930 | 21.61997 | 792 ft | 21 kts | 158° |
| 2026-04-25 17:19 | 41.96881 | 21.62102 | 794 ft | 8 kts | 101° |
| 2026-04-25 17:20 | 41.96825 | 21.62180 | 795 ft | 17 kts | 159° |
| 2026-04-25 17:20 | 41.96699 | 21.62228 | 795 ft | 20 kts | 164° |
| 2026-04-25 17:20 | 41.96538 | 21.62333 | 796 ft | 28 kts | 141° |
| 2026-04-25 17:20 | 41.96340 | 21.62419 | 796 ft | 32 kts | 166° |
| 2026-04-25 17:21 | 41.96145 | 21.62507 | 796 ft | 26 kts | 149° |
| 2026-04-25 17:21 | 41.96107 | 21.62566 | 796 ft | 0 kts | 155° |
| 2026-04-25 17:21 | 41.96105 | 21.62571 | 796 ft | 1 kts | 128° |
| 2026-04-25 17:21 | 41.96103 | 21.62580 | 796 ft | 0 kts | 97° |
| 2026-04-25 17:22 | 41.96103 | 21.62582 | 797 ft | 0 kts | 85° |
| 2026-04-25 17:22 | 41.96104 | 21.62583 | 797 ft | 0 kts | 77° |
| 2026-04-25 17:22 | 41.96105 | 21.62585 | 797 ft | 0 kts | 70° |